Metar Cercanos

 

LEPA - Palma De Mallorc, Spain
Distance from station: ONO 38km
Actualización: Sun, 11-Apr-2021 8:00pm CEST
Few Clouds
Few Clouds
 Viento del SO
Viento: SO 11 km/h
Temperatura: 17°C
Rocío: 14°C
Humedad: 83%
Barómetro: 1015 hPa
Clouds: Few Clouds
Visibility: 10 km
Cloud details: Few Clouds 610 m
2021/04/11 18:00 LEPA 111800Z 22006KT 9999 FEW020 17/14 Q1015 NOSIG
LEMH - Mahon/Menorca Is, Spain
Distance from station: ENE 105km
Actualización: Sun, 11-Apr-2021 8:00pm CEST
Few Clouds
Few Clouds
 Viento del S
Viento: S 9 km/h
Temperatura: 15°C
Rocío: 14°C
Humedad: 94%
Barómetro: 1015 hPa
Clouds: Few Clouds
Visibility: 10 km
Cloud details: Few Clouds 183 m
2021/04/11 18:00 LEMH 111800Z 17005KT 140V200 9999 FEW006 15/14 Q1015
 
LEIB - Ibiza/Es Codola, Spain
Distance from station: OSO 165km
Actualización: Sun, 11-Apr-2021 8:00pm CEST
Few Clouds
Few Clouds
 Viento del SO
Viento: SO 13 km/h
Temperatura: 17°C
Rocío: 15°C
Humedad: 88%
Barómetro: 1014 hPa
Clouds: Few Clouds
Visibility: 10 km
Cloud details: Few Clouds 457 m
2021/04/11 18:00 LEIB 111800Z 23007KT 9999 FEW015 17/15 Q1014 NOSIG
LEBL - Barcelona Airpor, Spain
Distance from station: NNO 225km
Actualización: Sun, 11-Apr-2021 8:00pm CEST
Parcialmente nuboso
Parcialmente nuboso
 Viento del SO
Viento: SO 13 km/h
Temperatura: 15°C
Rocío: 13°C
Humedad: 88%
Barómetro: 1015 hPa
Clouds: Parcialmente nuboso
Visibility: 10 km
Cloud details: Few Clouds 366 m
Parcialmente nuboso 1372 m
2021/04/11 18:00 LEBL 111800Z 22007KT 9999 FEW012 SCT045 15/13 Q1015 NOSIG
 
LEVC - Valencia (civ/Mi, Spain
Distance from station: NO 188km
Actualización: Sun, 11-Apr-2021 8:00pm CEST
Parcialmente nuboso
Parcialmente nuboso
 Viento del NE
Viento: NE 31 km/h
Temperatura: 17°C
Rocío: 12°C
Humedad: 73%
Barómetro: 1014 hPa
Clouds: Parcialmente nuboso
Visibility: 10 km
Cloud details: Few Clouds 610 m
Few Clouds 762 m
Parcialmente nuboso 1524 m
2021/04/11 18:00 LEVC 111800Z 05017KT 020V080 9999 FEW020 FEW025TCU SCT050 17/12 Q1014 BECMG NSC
LEGE - Gerona/Costa Bra, Spain
Distance from station: N 276km
Actualización: Sun, 11-Apr-2021 8:00pm CEST
Lluvia, Muy nuboso
Lluvia, Muy nuboso
 Viento del NE
Viento: NE 15 km/h
Temperatura: 11°C
Rocío: 10°C
Humedad: 94%
Barómetro: 1015 hPa
Resumen: Lluvia
Clouds: Muy nuboso
Visibility: 10 km
Cloud details: Few Clouds 427 m
Few Clouds 610 m
Muy nuboso 1097 m
2021/04/11 18:00 LEGE 111800Z 05008KT 9999 4900W RA FEW014 FEW020TCU BKN036 11/10 Q1015
 
LEAL - Alicante/El Alte, Spain
Distance from station: OSO 344km
Actualización: Sun, 11-Apr-2021 8:00pm CEST
Few Clouds
Few Clouds
 Viento del ENE
Viento: ENE 9 km/h
Temperatura: 17°C
Rocío: 15°C
Humedad: 88%
Barómetro: 1014 hPa
Clouds: Few Clouds
Visibility: 10 km
Cloud details: Few Clouds 1676 m
2021/04/11 18:00 LEAL 111800Z 06005KT 9999 FEW055 17/15 Q1014 NOSIG
LEAM - Almeria Airport, Spain
Distance from station: SSO 56km
Actualización: Sun, 11-Apr-2021 8:00pm CEST
Despejado
Despejado
 Viento del SO
Viento: SO 24 km/h
Temperatura: 18°C
Rocío: 15°C
Humedad: 83%
Barómetro: 1013 hPa
Resumen: Despejado
Visibility: greater than 10 km
2021/04/11 18:00 LEAM 111800Z 23013KT 200V260 CAVOK 18/15 Q1013
 
LEZG - Zaragoza (mil/Ci, Spain
Distance from station: NO 431km
Actualización: Sun, 11-Apr-2021 8:00pm CEST
Parcialmente nuboso
Parcialmente nuboso
 Viento del ONO
Viento: ONO 37 km/h
Temperatura: 12°C
Rocío: 5°C
Humedad: 63%
Barómetro: 1018 hPa
Clouds: Parcialmente nuboso
Visibility: 10 km
Cloud details: Few Clouds 1219 m
Parcialmente nuboso 2591 m
2021/04/11 18:00 LEZG 111800Z 30020KT 9999 FEW040 SCT085 12/05 Q1018
LEMD - Madrid/Barajas, Spain
Distance from station: ONO 234km
Actualización: Sun, 11-Apr-2021 8:00pm CEST
Lluvia débil, Showers, Muy nuboso
Lluvia débil, Showers, Muy nuboso
 Viento del NE
Viento: NE 11 km/h
Temperatura: 13°C
Rocío: 9°C
Humedad: 77%
Barómetro: 1016 hPa
Resumen: Lluvia débil, Showers
Clouds: Muy nuboso
Visibility: 10 km
Cloud details: Few Clouds 914 m
Muy nuboso 1524 m
2021/04/11 18:00 LEMD 111800Z 05006KT 350V110 9999 -SHRA FEW030TCU BKN050 13/09 Q1016 R88/29//95 NOSIG
 
LEGR - Granada Airport, Spain
Distance from station: OSO 62km
Actualización: Sun, 11-Apr-2021 8:00pm CEST
Few Clouds
Few Clouds
 Viento del ONO
Viento: ONO 15 km/h
Temperatura: 19°C
Rocío: 10°C
Humedad: 56%
Barómetro: 1016 hPa
Clouds: Few Clouds
Visibility: 10 km
Cloud details: Few Clouds 1372 m
2021/04/11 18:00 LEGR 111800Z 29008KT 260V320 9999 FEW045 19/10 Q1016
LEMG - Malaga (civ/Mil), Spain
Distance from station: OSO 227km
Actualización: Sun, 11-Apr-2021 8:00pm CEST
Parcialmente nuboso
Parcialmente nuboso
 Viento del S
Viento: S 7 km/h
Temperatura: 23°C
Rocío: 14°C
Humedad: 57%
Barómetro: 1014 hPa
Clouds: Parcialmente nuboso
Visibility: 10 km
Cloud details: Parcialmente nuboso 1676 m
2021/04/11 18:00 LEMG 111800Z 18004KT 130V230 9999 SCT055 23/14 Q1014 NOSIG
 
LEZL - Sevilla (civ/Mil, Spain
Distance from station: S 318km
Actualización: Sun, 11-Apr-2021 8:00pm CEST
Few Clouds
Few Clouds
 Viento del OSO
Viento: OSO 15 km/h
Temperatura: 21°C
Rocío: 12°C
Humedad: 57%
Barómetro: 1015 hPa
Clouds: Few Clouds
Visibility: 10 km
Cloud details: Few Clouds 1311 m
2021/04/11 18:00 LEZL 111800Z 25008KT 210V290 9999 FEW043 21/12 Q1015 NOSIG
LEVT - Vitoria, Spain
Distance from station: NO 226km
Actualización: Sun, 11-Apr-2021 8:00pm CEST
Muy nuboso
Muy nuboso
 Viento del N
Viento: N 11 km/h
Temperatura: 6°C
Sensación frio: 4°C
Rocío: 3°C
Humedad: 81%
Barómetro: 1022 hPa
Clouds: Muy nuboso
Visibility: 10 km
Cloud details: Few Clouds 488 m
Parcialmente nuboso 853 m
Muy nuboso 1524 m
2021/04/11 18:00 LEVT 111800Z 01006KT 9999 FEW016 SCT028 BKN050 06/03 Q1022
 
LEBB - Bilbao/Sondica, Spain
Distance from station: NNO 235km
Actualización: Sun, 11-Apr-2021 8:00pm CEST
Muy nuboso
Muy nuboso
 Viento del NNO
Viento: NNO 9 km/h
Temperatura: 10°C
Sensación frio: 9°C
Rocío: 6°C
Humedad: 76%
Barómetro: 1024 hPa
Clouds: Muy nuboso
Visibility: 10 km
Cloud details: Few Clouds 549 m
Muy nuboso 1067 m
2021/04/11 18:00 LEBB 111800Z 34005KT 9999 FEW018 BKN035 10/06 Q1024 NOSIG
LESO - San Sebastian/Fu, Spain
Distance from station: N 231km
Actualización: Sun, 11-Apr-2021 8:00pm CEST
Muy nuboso
Muy nuboso
 Viento del O
Viento: O 6 km/h
Temperatura: 10°C
Rocío: 8°C
Humedad: 88%
Barómetro: 1023 hPa
Clouds: Muy nuboso
Visibility: 10 km
Cloud details: Parcialmente nuboso 792 m
Muy nuboso 1219 m
Muy nuboso 1676 m
2021/04/11 18:00 LESO 111800Z 27003KT 230V330 9999 SCT026 BKN040 BKN055 10/08 Q1023
 
LEVD - Valladolid(Mil/C, Spain
Distance from station: ONO 239km
Actualización: Sun, 11-Apr-2021 8:00pm CEST
Parcialmente nuboso
Parcialmente nuboso
 Viento del ENE
Viento: ENE 22 km/h
Temperatura: 9°C
Sensación frio: 6°C
Rocío: 3°C
Humedad: 66%
Barómetro: 1019 hPa
Clouds: Parcialmente nuboso
Visibility: 10 km
Cloud details: Parcialmente nuboso 1219 m
2021/04/11 18:00 LEVD 111800Z 07012KT 9999 SCT040 09/03 Q1019
LESA - Salamanca (civ/M, Spain
Distance from station: ONO 349km
Actualización: Sun, 11-Apr-2021 8:00pm CEST
Few Clouds
Few Clouds
 Viento del ENE
Viento: ENE 17 km/h
Temperatura: 13°C
Rocío: 5°C
Humedad: 59%
Barómetro: 1018 hPa
Clouds: Few Clouds
Visibility: 10 km
Cloud details: Few Clouds 1067 m
2021/04/11 18:00 LESA 111800Z 06009KT 9999 FEW035 13/05 Q1018
 
LEXJ - Santander/Paraya, Spain
Distance from station: NNO 247km
Actualización: Sun, 11-Apr-2021 8:00pm CEST
Parcialmente nuboso
Parcialmente nuboso
 Viento del N
Viento: N 15 km/h
Temperatura: 11°C
Rocío: 2°C
Humedad: 54%
Barómetro: 1025 hPa
Clouds: Parcialmente nuboso
Visibility: 10 km
Cloud details: Few Clouds 1463 m
Parcialmente nuboso 2438 m
2021/04/11 18:00 LEXJ 111800Z 35008KT 290V040 9999 FEW048 SCT080 11/02 Q1025
LEAS - Asturias/Aviles, Spain
Distance from station: NO 214km
Actualización: Sun, 11-Apr-2021 8:00pm CEST
Few Clouds
Few Clouds
 Viento del ENE
Viento: ENE 11 km/h
Temperatura: 10°C
Sensación frio: 8°C
Rocío: 2°C
Humedad: 58%
Barómetro: 1025 hPa
Clouds: Few Clouds
Visibility: 10 km
Cloud details: Few Clouds 762 m
2021/04/11 18:00 LEAS 111800Z 07006KT 020V130 9999 FEW025 10/02 Q1025 NOSIG
 
LECO - La Coruna/Alvedr, Spain
Distance from station: ONO 222km
Actualización: Sun, 11-Apr-2021 8:00pm CEST
Despejado
Despejado
 Viento del NE
Viento: NE 22 km/h
Temperatura: 12°C
Rocío: 2°C
Humedad: 51%
Barómetro: 1023 hPa
Resumen: Despejado
Visibility: greater than 10 km
2021/04/11 18:00 LECO 111800Z 04012KT 360V070 CAVOK 12/02 Q1023 NOSIG
LEVX - Vigo/Peinador, Spain
Distance from station: O 214km
Actualización: Sun, 11-Apr-2021 8:00pm CEST
Despejado
Despejado
 Viento del NNE
Viento: NNE 22 km/h
Temperatura: 13°C
Rocío: 4°C
Humedad: 55%
Barómetro: 1019 hPa
Resumen: Despejado
Visibility: greater than 10 km
2021/04/11 18:00 LEVX 111800Z 03012KT 350V070 CAVOK 13/04 Q1019 NOSIG